Time;durP1;ratioP1;P1;durP2;ratioP2;P2;SDS_P1;SDS_P2;PMS_P1;PMS_P2;Temp;Humidity;BMP_temperature;BMP_pressure;BME280_temperature;BME280_humidity;BME280_pressure;Samples;Min_cycle;Max_cycle;Signal;HPM_P1;HPM_P2
2021/11/03 00:02:11;;;;;;;9.45;6.60;;;;;;;4.60;76.74;95345.59;5071284;28;20054;-74
2021/11/03 00:04:40;;;;;;;9.52;5.93;;;;;;;4.59;76.71;95352.56;5071357;28;20052;-74
2021/11/03 00:07:10;;;;;;;9.20;6.68;;;;;;;4.59;77.16;95346.56;5073729;28;20056;-75
2021/11/03 00:09:38;;;;;;;9.43;7.13;;;;;;;4.63;76.76;95342.66;5074740;28;20056;-74
2021/11/03 00:12:10;;;;;;;10.43;7.28;;;;;;;4.66;76.91;95347.50;5075905;28;20075;-75
2021/11/03 00:14:38;;;;;;;9.52;6.05;;;;;;;4.66;76.87;95347.50;5075322;28;20052;-75
2021/11/03 00:17:06;;;;;;;11.57;8.38;;;;;;;4.69;77.09;95350.50;5075012;28;20053;-75
2021/11/03 00:19:34;;;;;;;10.15;7.88;;;;;;;4.70;77.04;95348.72;5074491;28;20045;-75
2021/11/03 00:22:02;;;;;;;9.95;7.50;;;;;;;4.72;77.32;95346.78;5074713;28;20502;-72
2021/11/03 00:24:29;;;;;;;11.05;8.35;;;;;;;4.75;77.17;95338.69;5074745;28;20049;-72
2021/11/03 00:26:56;;;;;;;9.70;7.07;;;;;;;4.80;77.24;95344.13;5074362;28;20049;-72
2021/11/03 00:29:25;;;;;;;10.52;7.35;;;;;;;4.80;77.19;95344.13;5074586;28;20049;-72
2021/11/03 00:31:53;;;;;;;9.75;7.82;;;;;;;4.78;77.15;95346.06;5074780;28;20049;-72
2021/11/03 00:34:20;;;;;;;9.48;7.57;;;;;;;4.77;77.22;95353.97;5074657;28;20170;-72
2021/11/03 00:36:48;;;;;;;9.45;7.57;;;;;;;4.76;77.21;95348.03;5074569;28;20517;-72
2021/11/03 00:39:15;;;;;;;7.57;6.80;;;;;;;4.72;77.60;95346.78;5074229;28;20060;-72
2021/11/03 00:41:43;;;;;;;7.75;6.95;;;;;;;4.75;77.71;95351.59;5074358;28;20048;-72
2021/11/03 00:44:10;;;;;;;9.20;7.53;;;;;;;4.79;77.29;95367.53;5074459;28;20055;-72
2021/11/03 00:46:39;;;;;;;9.38;6.72;;;;;;;4.82;77.30;95365.41;5074404;28;20040;-72
2021/11/03 00:49:06;;;;;;;9.20;7.35;;;;;;;4.82;77.29;95357.66;5073891;28;20045;-72
2021/11/03 00:51:35;;;;;;;9.15;7.20;;;;;;;4.83;77.45;95351.53;5074224;28;20052;-72
2021/11/03 00:54:02;;;;;;;8.55;7.15;;;;;;;4.83;77.41;95353.28;5074173;28;20052;-72
2021/11/03 00:56:30;;;;;;;8.50;6.78;;;;;;;4.81;77.24;95350.06;5074393;28;20049;-72
2021/11/03 00:58:57;;;;;;;7.78;6.28;;;;;;;4.84;77.55;95360.88;5073688;28;20053;-72
2021/11/03 01:01:25;;;;;;;7.55;6.57;;;;;;;4.90;77.11;95361.97;5074211;28;20067;-72
2021/11/03 01:03:54;;;;;;;8.35;6.95;;;;;;;4.95;77.26;95360.44;5074132;28;20045;-72
2021/11/03 01:06:22;;;;;;;8.85;7.30;;;;;;;4.96;77.10;95363.81;5073788;28;20044;-72
2021/11/03 01:08:50;;;;;;;8.13;6.70;;;;;;;4.94;76.74;95358.84;5073824;28;20071;-71
2021/11/03 01:11:17;;;;;;;7.70;6.90;;;;;;;4.94;76.88;95358.84;5074174;28;20052;-72
2021/11/03 01:14:02;;;;;;;7.88;6.50;;;;;;;4.91;76.58;95354.00;5074156;28;20059;-72
2021/11/03 01:16:30;;;;;;;8.13;6.45;;;;;;;4.94;76.93;95352.84;5075074;28;20064;-71
2021/11/03 01:18:59;;;;;;;10.77;7.00;;;;;;;4.98;77.03;95355.88;5075583;28;20407;-72
2021/11/03 01:21:27;;;;;;;8.45;7.05;;;;;;;4.98;76.37;95348.13;5075657;28;20063;-72
2021/11/03 01:23:54;;;;;;;8.95;7.00;;;;;;;4.98;76.49;95340.38;5075256;28;20071;-72
2021/11/03 01:26:22;;;;;;;7.93;6.35;;;;;;;4.94;76.57;95337.34;5075149;28;20052;-72
2021/11/03 01:28:49;;;;;;;8.15;6.50;;;;;;;4.94;76.71;95329.59;5074947;28;20060;-72
2021/11/03 01:31:17;;;;;;;8.13;6.82;;;;;;;4.89;76.08;95317.22;5079198;28;20052;-72
2021/11/03 01:33:45;;;;;;;7.25;6.55;;;;;;;4.85;76.43;95310.00;5097862;28;20056;-70
2021/11/03 01:36:14;;;;;;;8.55;6.85;;;;;;;4.86;76.59;95312.41;5097186;28;20052;-70
2021/11/03 01:38:42;;;;;;;7.43;6.50;;;;;;;4.90;76.54;95305.91;5079391;28;20053;-72
2021/11/03 01:41:10;;;;;;;6.90;6.22;;;;;;;4.93;76.45;95307.31;5074378;28;20177;-72
2021/11/03 01:43:41;;;;;;;8.90;7.18;;;;;;;4.97;76.49;95302.63;5073783;28;20060;-72
2021/11/03 01:46:23;;;;;;;8.85;6.88;;;;;;;5.04;76.65;95291.38;5073382;28;20044;-72
2021/11/03 01:48:57;;;;;;;7.93;6.72;;;;;;;5.10;76.64;95282.91;5073060;28;20048;-71
2021/11/03 01:51:32;;;;;;;9.50;7.43;;;;;;;5.15;76.51;95277.19;5073315;28;20044;-72
2021/11/03 01:54:01;;;;;;;8.43;7.07;;;;;;;5.20;76.04;95267.09;5073142;28;20063;-72
2021/11/03 01:56:29;;;;;;;7.95;6.88;;;;;;;5.24;75.97;95263.19;5073055;28;20060;-71
2021/11/03 01:59:01;;;;;;;7.90;5.60;;;;;;;5.31;76.00;95268.41;5072636;28;20048;-72
2021/11/03 02:01:29;;;;;;;7.40;5.60;;;;;;;5.35;75.56;95260.13;5073128;28;20457;-72
2021/11/03 02:03:58;;;;;;;7.88;6.55;;;;;;;5.37;75.55;95265.91;5073286;28;20051;-72
2021/11/03 02:06:27;;;;;;;7.18;6.10;;;;;;;5.36;75.25;95251.41;5073114;28;20048;-75
2021/11/03 02:08:55;;;;;;;6.57;5.78;;;;;;;5.35;75.40;95249.78;5072421;28;20063;-75
2021/11/03 02:11:25;;;;;;;6.50;5.85;;;;;;;5.33;75.16;95262.09;5072955;28;20052;-74
2021/11/03 02:13:53;;;;;;;7.88;6.10;;;;;;;5.34;75.17;95257.72;5073883;28;20053;-73
2021/11/03 02:16:22;;;;;;;7.38;6.63;;;;;;;5.33;75.50;95256.13;5074262;28;20063;-71
2021/11/03 02:18:50;;;;;;;8.93;7.07;;;;;;;5.28;75.04;95248.13;5073786;28;20083;-73
2021/11/03 02:21:22;;;;;;;9.80;5.93;;;;;;;5.26;75.54;95252.66;5072968;28;20059;-73
2021/11/03 02:23:57;;;;;;;;;;;;;;;5.24;75.46;95252.03;5072923;28;20049;-72
2021/11/03 02:26:29;;;;;;;6.30;5.68;;;;;;;5.20;75.47;95256.75;5072615;28;19921;-73
2021/11/03 02:28:57;;;;;;;6.47;5.75;;;;;;;5.25;75.61;95251.88;5072185;28;20064;-73
2021/11/03 02:31:33;;;;;;;8.32;6.22;;;;;;;5.29;74.97;95260.88;5072538;28;20060;-72
2021/11/03 02:34:02;;;;;;;7.63;6.30;;;;;;;5.27;75.08;95262.00;5072156;28;20044;-72
2021/11/03 02:36:29;;;;;;;7.35;6.60;;;;;;;5.25;75.23;95259.63;5072400;28;20101;-72
2021/11/03 02:38:58;;;;;;;7.10;6.40;;;;;;;5.23;75.47;95261.59;5072096;28;20048;-73
2021/11/03 02:41:30;;;;;;;6.75;5.82;;;;;;;5.24;75.20;95258.00;5072534;28;20103;-73
2021/11/03 02:44:00;;;;;;;8.52;6.70;;;;;;;5.24;75.48;95260.59;5072217;28;20052;-73
2021/11/03 02:46:29;;;;;;;9.65;6.68;;;;;;;5.22;75.59;95244.47;5072177;28;20048;-73
2021/11/03 02:48:56;;;;;;;6.57;5.97;;;;;;;5.19;75.31;95238.88;5072184;28;20059;-72
2021/11/03 02:51:32;;;;;;;6.95;6.22;;;;;;;5.16;75.64;95232.28;5072745;28;20464;-73
2021/11/03 02:54:05;;;;;;;8.05;6.18;;;;;;;5.10;75.30;95233.78;5072183;28;20518;-72
2021/11/03 02:56:36;;;;;;;7.05;6.30;;;;;;;5.09;75.77;95219.25;5072066;28;20041;-72
2021/11/03 02:59:05;;;;;;;8.32;6.22;;;;;;;5.09;75.73;95227.00;5071686;28;20048;-72
2021/11/03 03:01:35;;;;;;;6.10;5.50;;;;;;;5.11;76.11;95226.84;5072341;28;20422;-72
2021/11/03 03:04:07;;;;;;;6.22;5.22;;;;;;;5.16;75.67;95227.91;5072607;28;20049;-73
2021/11/03 03:06:34;;;;;;;6.10;5.50;;;;;;;5.22;75.79;95226.34;5072140;28;20049;-73
2021/11/03 03:09:03;;;;;;;6.15;5.10;;;;;;;5.28;75.69;95219.66;5071529;28;20049;-72
2021/11/03 03:11:36;;;;;;;5.97;5.30;;;;;;;5.31;75.78;95207.19;5071762;28;20048;-73
2021/11/03 03:14:05;;;;;;;5.20;4.32;;;;;;;5.37;75.72;95216.78;5072080;28;20052;-72
2021/11/03 03:16:33;;;;;;;5.13;4.35;;;;;;;5.44;75.34;95222.03;5071893;28;20047;-72
2021/11/03 03:19:01;;;;;;;5.13;4.55;;;;;;;5.51;75.48;95220.31;5071434;28;20113;-73
2021/11/03 03:21:29;;;;;;;5.45;4.95;;;;;;;5.53;75.28;95215.78;5073341;28;20048;-71
2021/11/03 03:23:57;;;;;;;5.70;4.57;;;;;;;5.54;75.22;95216.56;5089182;28;20052;-72
2021/11/03 03:26:25;;;;;;;5.07;4.55;;;;;;;5.54;75.29;95211.38;5088985;28;20056;-72
2021/11/03 03:28:55;;;;;;;4.78;4.28;;;;;;;5.57;75.23;95208.41;5083233;28;20494;-72
2021/11/03 03:31:25;;;;;;;5.15;4.65;;;;;;;5.61;75.17;95206.28;5071900;28;20078;-72
2021/11/03 03:33:56;;;;;;;4.35;3.95;;;;;;;5.65;75.21;95208.31;5071766;28;20053;-73
2021/11/03 03:36:23;;;;;;;4.10;3.70;;;;;;;5.68;74.66;95213.09;5071760;28;20053;-73
2021/11/03 03:38:52;;;;;;;4.60;4.05;;;;;;;5.71;74.82;95212.75;5071427;28;20052;-73
2021/11/03 03:41:21;;;;;;;4.28;3.88;;;;;;;5.75;74.50;95219.16;5073077;28;20083;-73
2021/11/03 03:43:49;;;;;;;6.70;4.38;;;;;;;5.79;74.73;95222.16;5075688;28;20063;-73
2021/11/03 03:46:18;;;;;;;6.72;4.90;;;;;;;5.81;74.58;95224.56;5075633;28;20055;-72
2021/11/03 03:48:46;;;;;;;6.00;4.60;;;;;;;5.78;74.35;95220.56;5075444;28;20068;-73
2021/11/03 03:51:14;;;;;;;6.68;4.18;;;;;;;5.76;74.40;95220.75;5075411;28;20053;-72
2021/11/03 03:53:42;;;;;;;4.57;4.13;;;;;;;5.73;74.38;95213.38;5075509;28;20053;-72
2021/11/03 03:56:12;;;;;;;5.65;4.43;;;;;;;5.73;74.20;95212.56;5075451;28;20307;-75
2021/11/03 03:58:40;;;;;;;5.00;4.50;;;;;;;5.71;74.08;95207.56;5074785;28;20449;-75
2021/11/03 04:01:08;;;;;;;4.70;4.20;;;;;;;5.72;74.17;95203.97;5075404;28;20048;-75
2021/11/03 04:03:37;;;;;;;5.03;4.50;;;;;;;5.74;74.30;95203.81;5075110;28;20138;-75
2021/11/03 04:06:05;;;;;;;4.82;4.43;;;;;;;5.76;74.54;95205.22;5075376;28;20053;-74
2021/11/03 04:08:32;;;;;;;4.68;4.18;;;;;;;5.81;74.20;95203.88;5074774;28;20051;-75
2021/11/03 04:11:00;;;;;;;5.82;4.80;;;;;;;5.84;74.03;95200.91;5075209;28;20048;-75
2021/11/03 04:13:28;;;;;;;4.50;4.10;;;;;;;5.86;73.87;95204.09;5074882;28;20055;-74
2021/11/03 04:15:56;;;;;;;5.07;4.40;;;;;;;5.87;73.76;95203.13;5075019;28;20173;-74
2021/11/03 04:18:24;;;;;;;4.60;4.20;;;;;;;5.86;74.01;95194.56;5074649;28;20425;-74
2021/11/03 04:20:54;;;;;;;8.25;5.13;;;;;;;5.86;73.96;95186.81;5076232;28;20052;-74
2021/11/03 04:23:21;;;;;;;6.05;4.53;;;;;;;5.87;74.13;95192.78;5076560;28;20052;-74
2021/11/03 04:25:49;;;;;;;4.72;4.22;;;;;;;5.88;73.89;95192.59;5076469;28;20056;-75
2021/11/03 04:28:17;;;;;;;4.53;4.13;;;;;;;5.87;73.80;95185.00;5075528;28;20048;-75
2021/11/03 04:30:47;;;;;;;4.15;3.75;;;;;;;5.88;74.05;95192.59;5074753;28;20545;-75
2021/11/03 04:33:15;;;;;;;4.82;4.18;;;;;;;5.95;73.90;95179.75;5075224;28;20052;-75
2021/11/03 04:35:43;;;;;;;5.00;4.50;;;;;;;5.95;74.00;95192.69;5074940;28;20055;-74
2021/11/03 04:38:12;;;;;;;5.47;4.85;;;;;;;5.96;73.93;95182.13;5074716;28;20055;-75
2021/11/03 04:40:39;;;;;;;5.05;4.53;;;;;;;5.94;73.79;95175.50;5074427;28;20052;-74
2021/11/03 04:43:07;;;;;;;5.00;4.47;;;;;;;5.93;73.72;95176.50;5074349;28;20053;-75
2021/11/03 04:45:35;;;;;;;5.25;4.75;;;;;;;5.93;73.58;95184.25;5074565;28;20422;-74
2021/11/03 04:48:02;;;;;;;5.13;4.60;;;;;;;5.91;73.88;95188.81;5074262;28;20487;-75
2021/11/03 04:50:31;;;;;;;4.97;4.45;;;;;;;5.90;73.54;95180.28;5074234;28;20059;-75
2021/11/03 04:52:59;;;;;;;5.57;4.00;;;;;;;5.87;74.01;95169.47;5073216;28;20045;-75
2021/11/03 04:55:28;;;;;;;4.93;3.90;;;;;;;5.88;74.25;95176.25;5074458;28;20044;-75
2021/11/03 04:57:56;;;;;;;4.70;3.65;;;;;;;5.94;74.31;95178.09;5093683;22;20056;-77
2021/11/03 05:00:28;;;;;;;3.50;3.20;;;;;;;6.00;73.90;95192.91;5074895;28;20067;-76
2021/11/03 05:02:56;;;;;;;4.88;4.38;;;;;;;6.05;73.65;95181.97;5076222;28;20048;-78
2021/11/03 05:05:25;;;;;;;4.43;3.75;;;;;;;6.07;73.61;95188.56;5077146;28;20131;-77
2021/11/03 05:07:54;;;;;;;6.07;4.35;;;;;;;6.08;73.64;95192.78;5076983;28;20075;-77
2021/11/03 05:10:23;;;;;;;4.40;4.00;;;;;;;6.12;73.81;95175.06;5077223;28;20098;-75
2021/11/03 05:12:52;;;;;;;4.65;4.05;;;;;;;6.16;73.43;95179.66;5077196;28;20470;-77
2021/11/03 05:15:19;;;;;;;4.60;4.05;;;;;;;6.17;73.50;95170.94;5077216;28;20045;-77
2021/11/03 05:17:47;;;;;;;4.40;4.00;;;;;;;6.19;72.96;95179.31;5078443;28;20047;-77
2021/11/03 05:20:17;;;;;;;4.88;4.40;;;;;;;6.16;72.97;95178.88;5079645;28;20044;-79
2021/11/03 05:22:45;;;;;;;4.57;4.07;;;;;;;6.14;73.24;95160.97;5077008;28;20566;-76
2021/11/03 05:25:15;;;;;;;4.55;4.07;;;;;;;6.13;73.10;95161.94;5075954;28;20501;-78
2021/11/03 05:27:42;;;;;;;5.10;4.60;;;;;;;6.12;73.07;95142.22;5076659;28;20055;-78
2021/11/03 05:30:12;;;;;;;4.20;3.80;;;;;;;6.13;73.09;95151.56;5077153;28;20053;-77
2021/11/03 05:32:39;;;;;;;5.75;4.88;;;;;;;6.15;73.10;95139.25;5075204;28;20063;-77
2021/11/03 05:35:09;;;;;;;4.57;3.67;;;;;;;6.16;72.81;95140.84;5075407;28;20052;-77
2021/11/03 05:37:37;;;;;;;3.95;3.65;;;;;;;6.18;72.35;95140.66;5074979;28;20056;-77
2021/11/03 05:40:08;;;;;;;3.10;2.83;;;;;;;6.18;73.37;95131.09;5075089;28;20048;-77
2021/11/03 05:42:36;;;;;;;3.83;2.97;;;;;;;6.24;72.86;95132.13;5075542;28;20067;-77
2021/11/03 05:45:03;;;;;;;3.40;3.10;;;;;;;6.26;72.26;95129.34;5075761;28;20055;-77
2021/11/03 05:47:33;;;;;;;4.70;3.70;;;;;;;6.23;72.05;95129.72;5074691;28;20055;-78
2021/11/03 05:50:00;;;;;;;3.83;2.97;;;;;;;6.21;71.96;95131.69;5075428;28;20053;-77
2021/11/03 05:52:28;;;;;;;2.97;2.60;;;;;;;6.19;72.34;95126.72;5075729;28;20049;-78
2021/11/03 05:54:56;;;;;;;3.35;3.00;;;;;;;6.21;72.08;95123.94;5075280;28;20056;-77
2021/11/03 05:57:26;;;;;;;2.53;2.25;;;;;;;6.19;72.03;95124.13;5074651;28;20048;-77
2021/11/03 05:59:55;;;;;;;3.40;2.30;;;;;;;6.17;71.71;95126.91;5075312;28;20048;-78
2021/11/03 06:02:23;;;;;;;2.50;2.30;;;;;;;6.16;71.74;95119.31;5075883;28;20058;-78
2021/11/03 06:04:53;;;;;;;2.75;2.47;;;;;;;6.15;71.72;95115.16;5075262;28;20143;-78
2021/11/03 06:07:22;;;;;;;2.83;2.60;;;;;;;6.15;71.78;95118.53;5074388;28;20059;-78
2021/11/03 06:09:53;;;;;;;2.90;2.60;;;;;;;6.14;71.58;95103.19;5074795;28;20098;-79
2021/11/03 06:12:21;;;;;;;2.88;2.58;;;;;;;6.09;71.59;95101.16;5075567;28;20055;-78
2021/11/03 06:14:49;;;;;;;2.60;2.40;;;;;;;6.07;71.96;95107.53;5074654;28;20045;-78
2021/11/03 06:17:16;;;;;;;3.28;2.97;;;;;;;6.06;71.76;95103.34;5074479;28;20059;-79
2021/11/03 06:19:44;;;;;;;3.05;2.50;;;;;;;6.07;71.83;95102.34;5073809;28;20056;-78
2021/11/03 06:22:13;;;;;;;2.92;2.45;;;;;;;6.08;71.71;95089.22;5074913;28;20056;-78
2021/11/03 06:24:44;;;;;;;2.63;2.22;;;;;;;6.07;71.33;95077.25;5074347;28;20053;-78
2021/11/03 06:27:12;;;;;;;2.90;2.60;;;;;;;6.05;71.23;95068.88;5074136;28;20056;-77
2021/11/03 06:29:39;;;;;;;3.13;2.83;;;;;;;6.01;71.32;95074.63;5074661;28;20044;-78
2021/11/03 06:32:08;;;;;;;3.80;3.08;;;;;;;5.99;71.67;95080.00;5073863;28;20052;-78
2021/11/03 06:34:36;;;;;;;3.17;2.90;;;;;;;6.03;71.46;95075.25;5074317;28;20421;-78
2021/11/03 06:37:05;;;;;;;4.25;3.08;;;;;;;6.03;71.54;95078.63;5074616;28;20098;-79
2021/11/03 06:39:33;;;;;;;5.10;3.10;;;;;;;6.04;71.36;95071.69;5073894;28;20106;-80
2021/11/03 06:42:01;;;;;;;3.20;2.83;;;;;;;6.04;71.47;95077.66;5074276;28;20106;-78
2021/11/03 06:44:33;;;;;;;3.67;2.78;;;;;;;6.07;71.42;95071.28;5074491;28;20044;-78
2021/11/03 06:47:00;;;;;;;3.22;2.92;;;;;;;6.09;71.34;95070.09;5074626;28;20056;-78
2021/11/03 06:49:28;;;;;;;2.80;2.47;;;;;;;6.11;71.17;95062.94;5073875;28;20502;-80
2021/11/03 06:51:55;;;;;;;3.83;2.85;;;;;;;6.14;70.91;95062.59;5073801;28;20048;-78
2021/11/03 06:54:23;;;;;;;3.08;2.80;;;;;;;6.17;70.76;95064.78;5074415;28;20049;-78
2021/11/03 06:56:53;;;;;;;3.58;2.40;;;;;;;6.20;70.53;95055.81;5074475;28;20056;-78
2021/11/03 06:59:20;;;;;;;3.28;2.75;;;;;;;6.21;70.82;95051.44;5073826;28;20399;-78
2021/11/03 07:01:51;;;;;;;3.97;3.05;;;;;;;6.24;70.66;95051.06;5074086;28;20067;-78
2021/11/03 07:04:19;;;;;;;4.07;3.22;;;;;;;6.25;70.53;95037.91;5074390;28;20491;-78
2021/11/03 07:06:47;;;;;;;5.10;3.03;;;;;;;6.30;70.20;95040.72;5074354;28;20051;-77
2021/11/03 07:09:15;;;;;;;2.53;2.33;;;;;;;6.33;70.48;95040.34;5073806;28;20470;-78
2021/11/03 07:11:43;;;;;;;2.80;2.03;;;;;;;6.38;69.97;95048.34;5074958;28;20053;-79
2021/11/03 07:14:12;;;;;;;4.53;2.55;;;;;;;6.46;69.95;95049.94;5074225;28;20060;-78
2021/11/03 07:16:39;;;;;;;2.60;2.30;;;;;;;6.51;69.91;95062.31;5073404;28;20048;-77
2021/11/03 07:19:07;;;;;;;2.47;2.20;;;;;;;6.56;69.71;95063.34;5073855;28;20074;-79
2021/11/03 07:21:35;;;;;;;4.93;3.08;;;;;;;6.60;69.60;95061.97;5075151;28;20063;-78
2021/11/03 07:24:02;;;;;;;7.00;3.33;;;;;;;6.63;68.94;95065.16;5074191;28;20458;-78
2021/11/03 07:26:30;;;;;;;3.78;2.97;;;;;;;6.61;68.88;95055.00;5074850;28;20041;-77
2021/11/03 07:28:57;;;;;;;3.83;2.80;;;;;;;6.63;68.92;95060.78;5073157;28;20048;-77
2021/11/03 07:31:26;;;;;;;2.40;2.20;;;;;;;6.63;68.38;95065.97;5073396;28;20057;-77
2021/11/03 07:33:54;;;;;;;3.05;2.50;;;;;;;6.60;68.58;95046.41;5074107;28;20052;-77
2021/11/03 07:36:21;;;;;;;3.40;2.15;;;;;;;6.58;68.64;95058.78;5074601;28;20464;-78
2021/11/03 07:38:50;;;;;;;4.00;2.30;;;;;;;6.60;68.45;95051.59;5073522;28;20049;-76
2021/11/03 07:41:32;;;;;;;2.20;2.00;;;;;;;6.66;68.41;95059.59;5073850;28;20048;-76
2021/11/03 07:43:59;;;;;;;4.68;2.10;;;;;;;6.72;68.41;95058.81;5073802;28;20053;-77
2021/11/03 07:46:28;;;;;;;2.45;2.20;;;;;;;6.76;67.83;95060.03;5074387;28;20422;-78
2021/11/03 07:48:56;;;;;;;4.05;2.13;;;;;;;6.84;67.80;95066.81;5073076;28;20054;-78
2021/11/03 07:51:24;;;;;;;2.72;2.50;;;;;;;6.92;67.78;95085.56;5073327;28;20048;-77
2021/11/03 07:53:52;;;;;;;2.88;2.28;;;;;;;6.96;67.49;95080.78;5073590;28;20063;-75
2021/11/03 07:56:23;;;;;;;2.90;2.28;;;;;;;7.00;66.90;95087.19;5073310;28;20049;-79
2021/11/03 07:58:53;;;;;;;3.00;2.05;;;;;;;7.03;66.85;95086.00;5072590;28;20056;-78
2021/11/03 08:01:21;;;;;;;2.45;1.75;;;;;;;7.05;66.53;95071.03;5073428;28;20079;-77
2021/11/03 08:03:50;;;;;;;2.38;1.75;;;;;;;7.09;66.56;95075.63;5073636;28;20044;-77
2021/11/03 08:06:19;;;;;;;3.20;1.92;;;;;;;7.12;66.13;95064.06;5073185;28;20048;-77
2021/11/03 08:08:57;;;;;;;2.80;2.17;;;;;;;7.13;65.81;95053.50;5072332;28;20044;-77
2021/11/03 08:11:27;;;;;;;3.63;2.20;;;;;;;7.15;66.18;95037.72;5073721;28;20044;-77
2021/11/03 08:13:54;;;;;;;2.72;2.10;;;;;;;7.16;65.95;95045.31;5074461;28;20514;-81
2021/11/03 08:16:22;;;;;;;2.78;1.92;;;;;;;7.21;65.76;95049.91;5075234;28;20048;-83
2021/11/03 08:18:51;;;;;;;4.78;1.83;;;;;;;7.26;65.91;95050.13;5074088;28;20132;-81
2021/11/03 08:21:20;;;;;;;2.85;1.83;;;;;;;7.30;65.93;95034.94;5073381;28;20040;-77
2021/11/03 08:23:51;;;;;;;2.78;1.70;;;;;;;7.32;65.91;95028.56;5073492;28;20059;-81
2021/11/03 08:26:19;;;;;;;2.88;2.10;;;;;;;7.36;65.31;95023.78;5076107;28;20049;-77
2021/11/03 08:28:47;;;;;;;3.28;2.25;;;;;;;7.39;65.30;95044.94;5078598;28;20417;-77
2021/11/03 08:31:14;;;;;;;2.22;1.80;;;;;;;7.45;65.34;95039.94;5077812;28;20056;-77
2021/11/03 08:33:46;;;;;;;2.80;1.73;;;;;;;7.52;65.01;95023.38;5077444;28;20076;-78
2021/11/03 08:36:18;;;;;;;19.85;3.35;;;;;;;7.60;64.53;95006.78;5077975;28;20073;-77
2021/11/03 08:38:55;;;;;;;3.25;1.90;;;;;;;7.64;64.63;94990.63;5076885;28;20048;-76
2021/11/03 08:41:23;;;;;;;2.90;1.73;;;;;;;7.71;64.71;94995.00;5077926;28;20048;-76
2021/11/03 08:43:51;;;;;;;2.78;1.63;;;;;;;7.75;64.57;95004.78;5078857;28;20052;-76
2021/11/03 08:46:19;;;;;;;1.90;1.40;;;;;;;7.80;64.52;95017.13;5078169;28;20048;-77
2021/11/03 08:48:48;;;;;;;4.15;2.55;;;;;;;7.82;64.54;95012.53;5077921;28;20055;-77
2021/11/03 08:51:17;;;;;;;2.65;2.00;;;;;;;7.80;64.63;95014.53;5078095;28;20335;-77
2021/11/03 08:53:45;;;;;;;4.30;2.67;;;;;;;7.74;64.76;95026.56;5077058;28;20059;-76
2021/11/03 08:56:13;;;;;;;2.97;1.95;;;;;;;7.69;64.77;95020.34;5077232;28;20052;-77
2021/11/03 08:58:41;;;;;;;2.28;1.85;;;;;;;7.65;65.11;95025.13;5077231;28;20071;-76
2021/11/03 09:01:10;;;;;;;3.30;2.05;;;;;;;7.65;65.13;95022.53;5077603;28;20048;-77
2021/11/03 09:03:40;;;;;;;2.40;2.00;;;;;;;7.66;65.09;95021.56;5078247;28;20049;-77
2021/11/03 09:06:09;;;;;;;4.30;2.30;;;;;;;7.66;65.17;95015.59;5077726;28;20051;-78
2021/11/03 09:08:39;;;;;;;2.55;1.90;;;;;;;7.63;65.35;95016.75;5077235;28;20059;-81
2021/11/03 09:11:08;;;;;;;2.50;1.92;;;;;;;7.65;65.38;95027.72;5076822;28;20044;-77
2021/11/03 09:13:37;;;;;;;2.97;1.80;;;;;;;7.68;65.23;95029.94;5077523;28;20075;-80
2021/11/03 09:16:07;;;;;;;4.63;2.60;;;;;;;7.72;65.40;95038.09;5076970;28;20052;-77
2021/11/03 09:18:35;;;;;;;3.83;2.10;;;;;;;7.77;65.67;95027.94;5076765;28;20476;-79
2021/11/03 09:21:04;;;;;;;2.15;1.90;;;;;;;7.89;65.65;95015.13;5076909;28;20080;-80
2021/11/03 09:23:32;;;;;;;1.90;1.67;;;;;;;7.98;65.58;95032.06;5076648;28;20051;-77
2021/11/03 09:26:01;;;;;;;2.00;1.80;;;;;;;8.04;64.70;95029.44;5077872;28;20056;-77
2021/11/03 09:28:31;;;;;;;2.17;1.77;;;;;;;8.08;64.87;95037.63;5076180;28;20051;-79
2021/11/03 09:31:03;;;;;;;3.90;2.28;;;;;;;8.14;65.08;95041.22;5076596;28;20044;-77
2021/11/03 09:33:33;;;;;;;2.10;1.90;;;;;;;8.19;64.46;95025.81;5077467;28;20048;-76
2021/11/03 09:36:01;;;;;;;2.63;1.80;;;;;;;8.21;64.41;95027.22;5076832;28;20053;-78
2021/11/03 09:38:31;;;;;;;2.95;1.75;;;;;;;8.21;64.04;95029.81;5074926;28;20506;-77
2021/11/03 09:41:06;;;;;;;2.35;1.90;;;;;;;8.21;64.08;95029.81;5075930;28;20067;-79
2021/11/03 09:43:38;;;;;;;2.35;1.70;;;;;;;8.22;64.27;95020.22;5076084;28;20106;-79
2021/11/03 09:46:17;;;;;;;2.10;1.67;;;;;;;8.23;64.67;95034.81;5076221;28;20442;-78
2021/11/03 09:48:46;;;;;;;3.00;1.85;;;;;;;8.22;64.51;95023.63;5074923;28;20052;-79
2021/11/03 09:51:18;;;;;;;2.33;1.70;;;;;;;8.21;64.43;95027.22;5075708;28;20060;-78
2021/11/03 09:53:50;;;;;;;2.67;1.98;;;;;;;8.25;64.41;95027.59;5075853;28;20048;-79
2021/11/03 09:56:24;;;;;;;3.72;2.63;;;;;;;8.28;64.56;95034.19;5075733;28;20048;-76
2021/11/03 09:59:01;;;;;;;3.17;1.73;;;;;;;8.32;64.16;95048.38;5075405;28;20056;-74
2021/11/03 10:01:42;;;;;;;9.88;3.65;;;;;;;8.34;64.50;95052.34;5075808;28;20055;-76
2021/11/03 10:04:22;;;;;;;5.80;2.83;;;;;;;8.35;64.66;95053.13;5076447;28;20044;-77
2021/11/03 10:06:59;;;;;;;3.08;1.98;;;;;;;8.35;64.68;95040.16;5076251;28;20411;-77
2021/11/03 10:09:26;;;;;;;1.90;1.80;;;;;;;8.33;64.83;95023.97;5075244;28;20055;-77
2021/11/03 10:11:55;;;;;;;1.70;1.48;;;;;;;8.31;65.02;95020.78;5075642;28;20052;-77
2021/11/03 10:14:24;;;;;;;2.53;2.28;;;;;;;8.25;65.03;95022.41;5075169;28;20052;-77
2021/11/03 10:16:56;;;;;;;4.10;2.10;;;;;;;8.25;64.99;95019.81;5075748;28;20044;-75
2021/11/03 10:19:33;;;;;;;1.60;1.50;;;;;;;8.28;65.74;95016.00;5075132;28;20055;-76
2021/11/03 10:22:20;;;;;;;1.42;1.30;;;;;;;8.33;65.23;95000.59;5075880;28;20045;-77
2021/11/03 10:25:02;;;;;;;1.83;1.70;;;;;;;8.38;65.02;94985.97;5074646;28;20059;-77
2021/11/03 10:27:32;;;;;;;1.95;1.40;;;;;;;8.40;65.01;94973.63;5075466;28;20056;-77
2021/11/03 10:30:30;;;;;;;4.10;1.65;;;;;;;8.41;64.80;94969.22;5075096;28;20506;-78
2021/11/03 10:33:08;;;;;;;1.70;1.60;;;;;;;8.39;65.08;94984.16;5074569;28;20048;-77
2021/11/03 10:35:39;;;;;;;2.30;1.60;;;;;;;8.38;64.83;94985.19;5075469;28;20056;-78
2021/11/03 10:38:12;;;;;;;1.77;1.67;;;;;;;8.40;65.22;94990.97;5075100;28;20056;-77
2021/11/03 10:40:46;;;;;;;2.00;1.58;;;;;;;8.43;64.83;94988.78;5075257;28;20048;-78
2021/11/03 10:43:24;;;;;;;2.95;1.63;;;;;;;8.48;65.07;94980.34;5075928;28;20059;-78
2021/11/03 10:46:03;;;;;;;1.60;1.50;;;;;;;8.55;64.97;94994.13;5075668;28;20056;-77
2021/11/03 10:48:31;;;;;;;1.83;1.38;;;;;;;8.58;64.85;94998.91;5074904;28;20075;-76
2021/11/03 10:51:04;;;;;;;2.67;2.30;;;;;;;8.60;64.88;94999.50;5073969;28;20044;-78
2021/11/03 10:53:45;;;;;;;;;;;;;;;8.66;65.19;95003.06;5075455;28;20139;-78
2021/11/03 10:56:18;;;;;;;4.55;1.70;;;;;;;8.65;64.98;95002.25;5074378;28;19924;-77
2021/11/03 10:59:01;;;;;;;2.20;1.98;;;;;;;8.65;64.77;94999.66;5092065;22;20424;-75
2021/11/03 11:01:33;;;;;;;2.70;2.00;;;;;;;8.66;64.71;94996.06;5072539;28;20041;-75
2021/11/03 11:04:06;;;;;;;3.88;1.92;;;;;;;8.69;64.79;94996.66;5072327;28;20056;-74
2021/11/03 11:06:39;;;;;;;3.05;1.80;;;;;;;8.70;64.82;94995.63;5074336;28;20045;-75
2021/11/03 11:09:22;;;;;;;4.25;2.20;;;;;;;8.70;65.04;95003.44;5072184;28;20048;-75
2021/11/03 11:11:53;;;;;;;;;;;;;;;8.70;65.11;94998.22;5073223;28;20044;-76
2021/11/03 11:14:24;;;;;;;2.75;2.05;;;;;;;8.69;64.94;94992.25;5072977;28;20310;-76
2021/11/03 11:16:58;;;;;;;5.30;2.35;;;;;;;8.70;65.31;94978.22;5091887;28;20075;-75
2021/11/03 11:19:37;;;;;;;4.47;1.95;;;;;;;8.74;65.30;94978.63;5092150;28;20051;-75
2021/11/03 11:22:19;;;;;;;3.03;2.20;;;;;;;8.75;65.04;94981.00;5073333;28;20048;-75
2021/11/03 11:24:56;;;;;;;3.40;2.45;;;;;;;8.79;65.06;94991.78;5072030;28;20045;-76
2021/11/03 11:27:29;;;;;;;2.45;2.00;;;;;;;8.84;65.17;94989.34;5086542;28;20052;-76
2021/11/03 11:30:06;;;;;;;3.42;2.22;;;;;;;8.86;65.07;94987.34;5089081;28;20056;-75
2021/11/03 11:32:48;;;;;;;4.38;2.20;;;;;;;8.91;64.94;94995.31;5089555;28;20055;-75
2021/11/03 11:35:20;;;;;;;3.00;2.30;;;;;;;8.93;65.24;94985.50;5089738;28;20055;-75
2021/11/03 11:38:05;;;;;;;2.33;1.98;;;;;;;9.00;65.03;94983.63;5079720;28;20461;-75
2021/11/03 11:40:47;;;;;;;2.35;2.05;;;;;;;9.05;65.05;94988.19;5076407;28;20090;-75
2021/11/03 11:43:22;;;;;;;3.38;2.00;;;;;;;9.10;64.80;94985.00;5074103;28;20059;-75
2021/11/03 11:45:51;;;;;;;3.20;2.00;;;;;;;9.13;65.87;94976.75;5072981;28;20060;-76
2021/11/03 11:48:23;;;;;;;2.25;1.80;;;;;;;9.18;65.82;94979.50;5072147;28;20102;-76
2021/11/03 11:50:55;;;;;;;4.07;1.90;;;;;;;9.19;65.13;94966.28;5072172;28;20052;-76
2021/11/03 11:53:26;;;;;;;7.93;3.10;;;;;;;9.18;64.66;94950.88;5071734;28;20045;-76
2021/11/03 11:56:15;;;;;;;7.15;2.85;;;;;;;9.18;64.85;94945.69;5071783;28;20056;-75